sensor_id;sensor_type;location;lat;lon;timestamp;temperature;humidity
51637;DHT22;37713;53.254;6.460;2023-07-31T00:00:29;16.80;99.90
51637;DHT22;37713;53.254;6.460;2023-07-31T00:02:55;16.80;99.90
51637;DHT22;37713;53.254;6.460;2023-07-31T00:05:21;16.80;99.90
51637;DHT22;37713;53.254;6.460;2023-07-31T00:07:47;16.80;99.90
51637;DHT22;37713;53.254;6.460;2023-07-31T00:10:13;16.80;99.90
51637;DHT22;37713;53.254;6.460;2023-07-31T00:12:40;16.80;99.90
51637;DHT22;37713;53.254;6.460;2023-07-31T00:15:07;16.80;99.90
51637;DHT22;37713;53.254;6.460;2023-07-31T00:17:33;16.80;99.90
51637;DHT22;37713;53.254;6.460;2023-07-31T00:19:59;16.80;99.90
51637;DHT22;37713;53.254;6.460;2023-07-31T00:22:25;16.80;99.90
51637;DHT22;37713;53.254;6.460;2023-07-31T00:24:51;16.80;99.90
51637;DHT22;37713;53.254;6.460;2023-07-31T00:27:17;16.80;99.90
51637;DHT22;37713;53.254;6.460;2023-07-31T00:29:42;16.80;99.90
51637;DHT22;37713;53.254;6.460;2023-07-31T00:32:08;16.80;99.90
51637;DHT22;37713;53.254;6.460;2023-07-31T00:34:34;16.70;99.90
51637;DHT22;37713;53.254;6.460;2023-07-31T00:37:00;16.80;99.90
51637;DHT22;37713;53.254;6.460;2023-07-31T00:39:25;16.80;99.90
51637;DHT22;37713;53.254;6.460;2023-07-31T00:41:51;16.80;99.90
51637;DHT22;37713;53.254;6.460;2023-07-31T00:44:17;16.70;99.90
51637;DHT22;37713;53.254;6.460;2023-07-31T00:46:42;16.70;99.90
51637;DHT22;37713;53.254;6.460;2023-07-31T00:49:08;16.70;99.90
51637;DHT22;37713;53.254;6.460;2023-07-31T00:51:35;16.60;99.90
51637;DHT22;37713;53.254;6.460;2023-07-31T00:54:01;16.60;99.90
51637;DHT22;37713;53.254;6.460;2023-07-31T00:56:29;16.60;99.90
51637;DHT22;37713;53.254;6.460;2023-07-31T00:58:56;16.50;99.90
51637;DHT22;37713;53.254;6.460;2023-07-31T01:01:22;16.50;99.90
51637;DHT22;37713;53.254;6.460;2023-07-31T01:03:48;16.40;99.90
51637;DHT22;37713;53.254;6.460;2023-07-31T01:09:00;16.40;99.90
51637;DHT22;37713;53.254;6.460;2023-07-31T01:11:30;16.30;99.90
51637;DHT22;37713;53.254;6.460;2023-07-31T01:13:56;16.30;99.90
51637;DHT22;37713;53.254;6.460;2023-07-31T01:16:23;16.40;99.90
51637;DHT22;37713;53.254;6.460;2023-07-31T01:18:49;16.40;99.90
51637;DHT22;37713;53.254;6.460;2023-07-31T01:27:08;16.30;99.90
51637;DHT22;37713;53.254;6.460;2023-07-31T01:32:08;16.30;99.90
51637;DHT22;37713;53.254;6.460;2023-07-31T01:34:35;16.30;99.90
51637;DHT22;37713;53.254;6.460;2023-07-31T01:37:02;16.30;99.90
51637;DHT22;37713;53.254;6.460;2023-07-31T01:39:28;16.30;99.90
51637;DHT22;37713;53.254;6.460;2023-07-31T01:41:54;16.30;99.90
51637;DHT22;37713;53.254;6.460;2023-07-31T01:44:20;16.30;99.90
51637;DHT22;37713;53.254;6.460;2023-07-31T01:46:46;16.40;99.90
51637;DHT22;37713;53.254;6.460;2023-07-31T01:49:11;16.30;99.90
51637;DHT22;37713;53.254;6.460;2023-07-31T01:51:37;16.40;99.90
51637;DHT22;37713;53.254;6.460;2023-07-31T01:54:03;16.30;99.90
51637;DHT22;37713;53.254;6.460;2023-07-31T01:56:29;16.30;99.90
51637;DHT22;37713;53.254;6.460;2023-07-31T01:58:55;16.30;99.90
51637;DHT22;37713;53.254;6.460;2023-07-31T02:01:21;16.30;99.90
51637;DHT22;37713;53.254;6.460;2023-07-31T02:03:46;16.30;99.90
51637;DHT22;37713;53.254;6.460;2023-07-31T02:06:12;16.30;99.90
51637;DHT22;37713;53.254;6.460;2023-07-31T02:08:38;16.30;99.90
51637;DHT22;37713;53.254;6.460;2023-07-31T02:11:04;16.30;99.90
51637;DHT22;37713;53.254;6.460;2023-07-31T02:13:29;16.30;99.90
51637;DHT22;37713;53.254;6.460;2023-07-31T02:15:55;16.30;99.90
51637;DHT22;37713;53.254;6.460;2023-07-31T02:18:21;16.30;99.90
51637;DHT22;37713;53.254;6.460;2023-07-31T02:20:51;16.30;99.90
51637;DHT22;37713;53.254;6.460;2023-07-31T02:23:18;16.30;99.90
51637;DHT22;37713;53.254;6.460;2023-07-31T02:25:44;16.30;99.90
51637;DHT22;37713;53.254;6.460;2023-07-31T02:28:10;16.30;99.90
51637;DHT22;37713;53.254;6.460;2023-07-31T02:30:36;16.30;99.90
51637;DHT22;37713;53.254;6.460;2023-07-31T02:33:02;16.20;99.90
51637;DHT22;37713;53.254;6.460;2023-07-31T02:35:27;16.30;99.90
51637;DHT22;37713;53.254;6.460;2023-07-31T02:37:53;16.30;99.90
51637;DHT22;37713;53.254;6.460;2023-07-31T02:40:19;16.20;99.90
51637;DHT22;37713;53.254;6.460;2023-07-31T02:42:45;16.30;99.90
51637;DHT22;37713;53.254;6.460;2023-07-31T02:45:10;16.30;99.90
51637;DHT22;37713;53.254;6.460;2023-07-31T02:47:36;16.30;99.90
51637;DHT22;37713;53.254;6.460;2023-07-31T02:50:03;16.30;99.90
51637;DHT22;37713;53.254;6.460;2023-07-31T02:52:29;16.30;99.90
51637;DHT22;37713;53.254;6.460;2023-07-31T02:54:55;16.30;99.90
51637;DHT22;37713;53.254;6.460;2023-07-31T02:57:21;16.30;99.90
51637;DHT22;37713;53.254;6.460;2023-07-31T02:59:46;16.30;99.90
51637;DHT22;37713;53.254;6.460;2023-07-31T03:02:12;16.30;99.90
51637;DHT22;37713;53.254;6.460;2023-07-31T03:04:38;16.30;99.90
51637;DHT22;37713;53.254;6.460;2023-07-31T03:07:05;16.20;99.90
51637;DHT22;37713;53.254;6.460;2023-07-31T03:09:31;16.30;99.90
51637;DHT22;37713;53.254;6.460;2023-07-31T03:11:56;16.30;99.90
51637;DHT22;37713;53.254;6.460;2023-07-31T03:14:22;16.30;99.90
51637;DHT22;37713;53.254;6.460;2023-07-31T03:16:48;16.30;99.90
51637;DHT22;37713;53.254;6.460;2023-07-31T03:19:14;16.20;99.90
51637;DHT22;37713;53.254;6.460;2023-07-31T03:21:40;16.20;99.90
51637;DHT22;37713;53.254;6.460;2023-07-31T03:24:06;16.20;99.90
51637;DHT22;37713;53.254;6.460;2023-07-31T03:26:32;16.20;99.90
51637;DHT22;37713;53.254;6.460;2023-07-31T03:28:58;16.20;99.90
51637;DHT22;37713;53.254;6.460;2023-07-31T03:31:24;16.30;99.90
51637;DHT22;37713;53.254;6.460;2023-07-31T03:33:49;16.20;99.90
51637;DHT22;37713;53.254;6.460;2023-07-31T03:36:15;16.20;99.90
51637;DHT22;37713;53.254;6.460;2023-07-31T03:38:41;16.20;99.90
51637;DHT22;37713;53.254;6.460;2023-07-31T03:41:06;16.20;99.90
51637;DHT22;37713;53.254;6.460;2023-07-31T03:43:32;16.20;99.90
51637;DHT22;37713;53.254;6.460;2023-07-31T03:46:01;16.20;99.90
51637;DHT22;37713;53.254;6.460;2023-07-31T03:48:28;16.20;99.90
51637;DHT22;37713;53.254;6.460;2023-07-31T03:50:54;16.20;99.90
51637;DHT22;37713;53.254;6.460;2023-07-31T03:53:20;16.20;99.90
51637;DHT22;37713;53.254;6.460;2023-07-31T03:55:46;16.20;99.90
51637;DHT22;37713;53.254;6.460;2023-07-31T03:58:12;16.20;99.90
51637;DHT22;37713;53.254;6.460;2023-07-31T04:00:40;16.20;99.90
51637;DHT22;37713;53.254;6.460;2023-07-31T04:03:06;16.20;99.90
51637;DHT22;37713;53.254;6.460;2023-07-31T04:05:32;16.20;99.90
51637;DHT22;37713;53.254;6.460;2023-07-31T04:07:58;16.20;99.90
51637;DHT22;37713;53.254;6.460;2023-07-31T04:10:24;16.20;99.90
51637;DHT22;37713;53.254;6.460;2023-07-31T04:12:50;16.20;99.90
51637;DHT22;37713;53.254;6.460;2023-07-31T04:15:15;16.20;99.90
51637;DHT22;37713;53.254;6.460;2023-07-31T04:17:41;16.20;99.90
51637;DHT22;37713;53.254;6.460;2023-07-31T04:20:08;16.20;99.90
51637;DHT22;37713;53.254;6.460;2023-07-31T04:22:33;16.20;99.90
51637;DHT22;37713;53.254;6.460;2023-07-31T04:24:59;16.20;99.90
51637;DHT22;37713;53.254;6.460;2023-07-31T04:27:25;16.20;99.90
51637;DHT22;37713;53.254;6.460;2023-07-31T04:29:51;16.30;99.90
51637;DHT22;37713;53.254;6.460;2023-07-31T04:32:17;16.20;99.90
51637;DHT22;37713;53.254;6.460;2023-07-31T04:34:43;16.20;99.90
51637;DHT22;37713;53.254;6.460;2023-07-31T04:37:09;16.20;99.90
51637;DHT22;37713;53.254;6.460;2023-07-31T04:39:35;16.20;99.90
51637;DHT22;37713;53.254;6.460;2023-07-31T04:42:00;16.30;99.90
51637;DHT22;37713;53.254;6.460;2023-07-31T04:44:26;16.30;99.90
51637;DHT22;37713;53.254;6.460;2023-07-31T04:46:52;16.30;99.90
51637;DHT22;37713;53.254;6.460;2023-07-31T04:49:17;16.30;99.90
51637;DHT22;37713;53.254;6.460;2023-07-31T04:51:44;16.30;99.90
51637;DHT22;37713;53.254;6.460;2023-07-31T04:54:10;16.30;99.90
51637;DHT22;37713;53.254;6.460;2023-07-31T04:56:38;16.30;99.90
51637;DHT22;37713;53.254;6.460;2023-07-31T04:59:04;16.30;99.90
51637;DHT22;37713;53.254;6.460;2023-07-31T05:01:30;16.30;99.90
51637;DHT22;37713;53.254;6.460;2023-07-31T05:03:55;16.30;99.90
51637;DHT22;37713;53.254;6.460;2023-07-31T05:06:21;16.30;99.90
51637;DHT22;37713;53.254;6.460;2023-07-31T05:08:47;16.30;99.90
51637;DHT22;37713;53.254;6.460;2023-07-31T05:11:13;16.30;99.90
51637;DHT22;37713;53.254;6.460;2023-07-31T05:13:38;16.30;99.90
51637;DHT22;37713;53.254;6.460;2023-07-31T05:16:04;16.30;99.90
51637;DHT22;37713;53.254;6.460;2023-07-31T05:18:30;16.30;99.90
51637;DHT22;37713;53.254;6.460;2023-07-31T05:20:56;16.40;99.90
51637;DHT22;37713;53.254;6.460;2023-07-31T05:23:21;16.40;99.90
51637;DHT22;37713;53.254;6.460;2023-07-31T05:25:47;16.40;99.90
51637;DHT22;37713;53.254;6.460;2023-07-31T05:28:13;16.30;99.90
51637;DHT22;37713;53.254;6.460;2023-07-31T05:30:39;16.40;99.90
51637;DHT22;37713;53.254;6.460;2023-07-31T05:33:04;16.40;99.90
51637;DHT22;37713;53.254;6.460;2023-07-31T05:35:30;16.40;99.90
51637;DHT22;37713;53.254;6.460;2023-07-31T05:37:56;16.40;99.90
51637;DHT22;37713;53.254;6.460;2023-07-31T05:40:22;16.40;99.90
51637;DHT22;37713;53.254;6.460;2023-07-31T05:42:47;16.40;99.90
51637;DHT22;37713;53.254;6.460;2023-07-31T05:45:13;16.40;99.90
51637;DHT22;37713;53.254;6.460;2023-07-31T05:47:39;16.40;99.90
51637;DHT22;37713;53.254;6.460;2023-07-31T05:50:05;16.40;99.90
51637;DHT22;37713;53.254;6.460;2023-07-31T05:52:31;16.50;99.90
51637;DHT22;37713;53.254;6.460;2023-07-31T05:54:57;16.50;99.90
51637;DHT22;37713;53.254;6.460;2023-07-31T05:57:23;16.60;99.90
51637;DHT22;37713;53.254;6.460;2023-07-31T05:59:48;16.50;99.90
51637;DHT22;37713;53.254;6.460;2023-07-31T06:02:14;16.50;99.90
51637;DHT22;37713;53.254;6.460;2023-07-31T06:04:40;16.60;99.90
51637;DHT22;37713;53.254;6.460;2023-07-31T06:07:07;16.60;99.90
51637;DHT22;37713;53.254;6.460;2023-07-31T06:09:33;16.70;99.90
51637;DHT22;37713;53.254;6.460;2023-07-31T06:11:58;16.60;99.90
51637;DHT22;37713;53.254;6.460;2023-07-31T06:14:24;16.70;99.90
51637;DHT22;37713;53.254;6.460;2023-07-31T06:16:50;16.70;99.90
51637;DHT22;37713;53.254;6.460;2023-07-31T06:19:16;16.70;99.90
51637;DHT22;37713;53.254;6.460;2023-07-31T06:21:41;16.70;99.90
51637;DHT22;37713;53.254;6.460;2023-07-31T06:24:08;16.70;99.90
51637;DHT22;37713;53.254;6.460;2023-07-31T06:26:34;16.70;99.90
51637;DHT22;37713;53.254;6.460;2023-07-31T06:29:00;16.80;99.90
51637;DHT22;37713;53.254;6.460;2023-07-31T06:31:26;16.80;99.90
51637;DHT22;37713;53.254;6.460;2023-07-31T06:33:52;16.80;99.90
51637;DHT22;37713;53.254;6.460;2023-07-31T06:36:18;16.80;99.90
51637;DHT22;37713;53.254;6.460;2023-07-31T06:38:44;16.80;99.90
51637;DHT22;37713;53.254;6.460;2023-07-31T06:41:10;16.90;99.90
51637;DHT22;37713;53.254;6.460;2023-07-31T06:43:36;16.80;99.90
51637;DHT22;37713;53.254;6.460;2023-07-31T06:46:06;16.90;99.90
51637;DHT22;37713;53.254;6.460;2023-07-31T06:48:33;16.90;99.90
51637;DHT22;37713;53.254;6.460;2023-07-31T06:51:00;17.00;99.90
51637;DHT22;37713;53.254;6.460;2023-07-31T06:53:26;17.00;99.90
51637;DHT22;37713;53.254;6.460;2023-07-31T06:55:51;17.00;99.90
51637;DHT22;37713;53.254;6.460;2023-07-31T06:58:17;17.00;99.90
51637;DHT22;37713;53.254;6.460;2023-07-31T07:00:43;17.10;99.90
51637;DHT22;37713;53.254;6.460;2023-07-31T07:03:09;17.20;99.90
51637;DHT22;37713;53.254;6.460;2023-07-31T07:05:35;17.30;99.90
51637;DHT22;37713;53.254;6.460;2023-07-31T07:08:01;17.30;99.90
51637;DHT22;37713;53.254;6.460;2023-07-31T07:10:27;17.40;99.90
51637;DHT22;37713;53.254;6.460;2023-07-31T07:12:53;17.40;99.90
51637;DHT22;37713;53.254;6.460;2023-07-31T07:15:18;17.50;99.90
51637;DHT22;37713;53.254;6.460;2023-07-31T07:17:44;17.50;99.90
51637;DHT22;37713;53.254;6.460;2023-07-31T07:20:10;17.50;99.90
51637;DHT22;37713;53.254;6.460;2023-07-31T07:22:36;17.50;99.90
51637;DHT22;37713;53.254;6.460;2023-07-31T07:25:03;17.60;99.90
51637;DHT22;37713;53.254;6.460;2023-07-31T07:27:29;17.60;99.90
51637;DHT22;37713;53.254;6.460;2023-07-31T07:29:55;17.60;99.90
51637;DHT22;37713;53.254;6.460;2023-07-31T07:32:21;17.50;99.90
51637;DHT22;37713;53.254;6.460;2023-07-31T07:34:47;17.50;99.90
51637;DHT22;37713;53.254;6.460;2023-07-31T07:37:13;17.50;99.90
51637;DHT22;37713;53.254;6.460;2023-07-31T07:39:39;17.50;99.90
51637;DHT22;37713;53.254;6.460;2023-07-31T07:42:05;17.50;99.90
51637;DHT22;37713;53.254;6.460;2023-07-31T07:44:31;17.50;99.90
51637;DHT22;37713;53.254;6.460;2023-07-31T07:46:57;17.60;99.90
51637;DHT22;37713;53.254;6.460;2023-07-31T07:49:23;17.60;99.90
51637;DHT22;37713;53.254;6.460;2023-07-31T07:51:49;17.70;99.90
51637;DHT22;37713;53.254;6.460;2023-07-31T07:54:15;17.70;99.90
51637;DHT22;37713;53.254;6.460;2023-07-31T07:56:42;17.70;99.90
51637;DHT22;37713;53.254;6.460;2023-07-31T07:59:08;17.60;99.90
51637;DHT22;37713;53.254;6.460;2023-07-31T08:01:34;17.70;99.90
51637;DHT22;37713;53.254;6.460;2023-07-31T08:04:00;17.70;99.90
51637;DHT22;37713;53.254;6.460;2023-07-31T08:06:26;17.70;99.90
51637;DHT22;37713;53.254;6.460;2023-07-31T08:08:52;17.80;99.90
51637;DHT22;37713;53.254;6.460;2023-07-31T08:11:17;17.80;99.90
51637;DHT22;37713;53.254;6.460;2023-07-31T08:13:43;17.90;99.90
51637;DHT22;37713;53.254;6.460;2023-07-31T08:16:09;17.80;99.90
51637;DHT22;37713;53.254;6.460;2023-07-31T08:18:35;17.80;99.90
51637;DHT22;37713;53.254;6.460;2023-07-31T08:21:02;17.80;99.90
51637;DHT22;37713;53.254;6.460;2023-07-31T08:23:28;17.80;99.90
51637;DHT22;37713;53.254;6.460;2023-07-31T08:25:54;17.90;99.90
51637;DHT22;37713;53.254;6.460;2023-07-31T08:28:20;17.90;99.90
51637;DHT22;37713;53.254;6.460;2023-07-31T08:30:45;17.90;99.90
51637;DHT22;37713;53.254;6.460;2023-07-31T08:33:11;18.00;99.90
51637;DHT22;37713;53.254;6.460;2023-07-31T08:35:37;18.10;99.90
51637;DHT22;37713;53.254;6.460;2023-07-31T08:38:02;18.20;99.90
51637;DHT22;37713;53.254;6.460;2023-07-31T08:40:28;18.30;99.90
51637;DHT22;37713;53.254;6.460;2023-07-31T08:42:55;18.40;99.90
51637;DHT22;37713;53.254;6.460;2023-07-31T08:45:28;18.40;99.90
51637;DHT22;37713;53.254;6.460;2023-07-31T08:47:55;18.60;99.90
51637;DHT22;37713;53.254;6.460;2023-07-31T08:50:22;18.60;99.90
51637;DHT22;37713;53.254;6.460;2023-07-31T08:52:50;18.50;99.90
51637;DHT22;37713;53.254;6.460;2023-07-31T08:55:16;18.50;99.90
51637;DHT22;37713;53.254;6.460;2023-07-31T08:57:43;18.60;99.90
51637;DHT22;37713;53.254;6.460;2023-07-31T09:00:10;18.60;99.90
51637;DHT22;37713;53.254;6.460;2023-07-31T09:05:11;18.50;99.90
51637;DHT22;37713;53.254;6.460;2023-07-31T09:07:38;18.40;99.90
51637;DHT22;37713;53.254;6.460;2023-07-31T09:10:04;18.40;99.90
51637;DHT22;37713;53.254;6.460;2023-07-31T09:12:30;18.40;99.90
51637;DHT22;37713;53.254;6.460;2023-07-31T09:14:57;18.50;99.90
51637;DHT22;37713;53.254;6.460;2023-07-31T09:17:29;18.40;99.90
51637;DHT22;37713;53.254;6.460;2023-07-31T09:19:56;18.40;99.90
51637;DHT22;37713;53.254;6.460;2023-07-31T09:22:33;18.40;99.90
51637;DHT22;37713;53.254;6.460;2023-07-31T09:25:18;18.40;99.90
51637;DHT22;37713;53.254;6.460;2023-07-31T09:30:18;18.40;99.90
51637;DHT22;37713;53.254;6.460;2023-07-31T09:32:44;18.50;99.90
51637;DHT22;37713;53.254;6.460;2023-07-31T09:37:39;18.60;99.90
51637;DHT22;37713;53.254;6.460;2023-07-31T09:40:05;18.70;99.90
51637;DHT22;37713;53.254;6.460;2023-07-31T09:42:31;18.80;99.90
51637;DHT22;37713;53.254;6.460;2023-07-31T09:45:09;18.80;99.90
51637;DHT22;37713;53.254;6.460;2023-07-31T09:47:35;18.80;99.90
51637;DHT22;37713;53.254;6.460;2023-07-31T09:50:01;18.90;99.90
51637;DHT22;37713;53.254;6.460;2023-07-31T09:52:27;18.90;99.90
51637;DHT22;37713;53.254;6.460;2023-07-31T09:54:53;18.90;99.90
51637;DHT22;37713;53.254;6.460;2023-07-31T09:57:21;19.00;99.90
51637;DHT22;37713;53.254;6.460;2023-07-31T09:59:48;18.90;99.90
51637;DHT22;37713;53.254;6.460;2023-07-31T10:02:22;19.00;99.90
51637;DHT22;37713;53.254;6.460;2023-07-31T10:04:50;19.00;99.90
51637;DHT22;37713;53.254;6.460;2023-07-31T10:07:17;19.10;99.90
51637;DHT22;37713;53.254;6.460;2023-07-31T10:09:44;19.10;99.90
51637;DHT22;37713;53.254;6.460;2023-07-31T10:12:12;19.20;99.90
51637;DHT22;37713;53.254;6.460;2023-07-31T10:14:41;19.10;99.90
51637;DHT22;37713;53.254;6.460;2023-07-31T10:17:07;19.00;99.90
51637;DHT22;37713;53.254;6.460;2023-07-31T10:19:34;18.90;99.90
51637;DHT22;37713;53.254;6.460;2023-07-31T10:22:03;18.90;99.90
51637;DHT22;37713;53.254;6.460;2023-07-31T10:24:30;18.90;99.90
51637;DHT22;37713;53.254;6.460;2023-07-31T10:26:58;19.00;99.90
51637;DHT22;37713;53.254;6.460;2023-07-31T10:29:25;18.90;99.90
51637;DHT22;37713;53.254;6.460;2023-07-31T10:31:52;18.90;99.90
51637;DHT22;37713;53.254;6.460;2023-07-31T10:34:18;18.90;99.90
51637;DHT22;37713;53.254;6.460;2023-07-31T10:36:44;19.00;99.90
51637;DHT22;37713;53.254;6.460;2023-07-31T10:39:36;19.00;99.90
51637;DHT22;37713;53.254;6.460;2023-07-31T10:42:11;19.10;99.90
51637;DHT22;37713;53.254;6.460;2023-07-31T10:44:37;19.20;99.90
51637;DHT22;37713;53.254;6.460;2023-07-31T10:47:03;19.30;99.90
51637;DHT22;37713;53.254;6.460;2023-07-31T10:49:29;19.40;99.90
51637;DHT22;37713;53.254;6.460;2023-07-31T10:51:57;19.40;99.90
51637;DHT22;37713;53.254;6.460;2023-07-31T10:54:23;19.60;99.90
51637;DHT22;37713;53.254;6.460;2023-07-31T10:56:51;19.80;99.90
51637;DHT22;37713;53.254;6.460;2023-07-31T10:59:18;19.90;99.90
51637;DHT22;37713;53.254;6.460;2023-07-31T11:01:53;20.10;99.90
51637;DHT22;37713;53.254;6.460;2023-07-31T11:04:27;20.30;99.90
51637;DHT22;37713;53.254;6.460;2023-07-31T11:07:01;20.30;99.90
51637;DHT22;37713;53.254;6.460;2023-07-31T11:09:33;20.30;99.90
51637;DHT22;37713;53.254;6.460;2023-07-31T11:11:59;20.30;99.90
51637;DHT22;37713;53.254;6.460;2023-07-31T11:14:25;20.20;99.90
51637;DHT22;37713;53.254;6.460;2023-07-31T11:16:51;20.10;99.90
51637;DHT22;37713;53.254;6.460;2023-07-31T11:19:24;20.10;99.90
51637;DHT22;37713;53.254;6.460;2023-07-31T11:21:51;20.10;99.90
51637;DHT22;37713;53.254;6.460;2023-07-31T11:24:18;20.10;99.90
51637;DHT22;37713;53.254;6.460;2023-07-31T11:26:53;20.10;99.90
51637;DHT22;37713;53.254;6.460;2023-07-31T11:29:20;20.10;99.90
51637;DHT22;37713;53.254;6.460;2023-07-31T11:31:47;20.00;99.90
51637;DHT22;37713;53.254;6.460;2023-07-31T11:34:13;20.00;99.90
51637;DHT22;37713;53.254;6.460;2023-07-31T11:36:39;19.90;99.90
51637;DHT22;37713;53.254;6.460;2023-07-31T11:39:09;19.80;99.90
51637;DHT22;37713;53.254;6.460;2023-07-31T11:41:35;19.90;99.90
51637;DHT22;37713;53.254;6.460;2023-07-31T11:44:01;20.00;99.90
51637;DHT22;37713;53.254;6.460;2023-07-31T11:46:30;20.10;99.90
51637;DHT22;37713;53.254;6.460;2023-07-31T11:49:00;20.20;99.90
51637;DHT22;37713;53.254;6.460;2023-07-31T11:51:25;20.30;99.90
51637;DHT22;37713;53.254;6.460;2023-07-31T11:53:57;20.20;99.90
51637;DHT22;37713;53.254;6.460;2023-07-31T11:56:24;20.30;99.90
51637;DHT22;37713;53.254;6.460;2023-07-31T11:58:53;20.40;99.90
51637;DHT22;37713;53.254;6.460;2023-07-31T12:01:21;20.40;99.90
51637;DHT22;37713;53.254;6.460;2023-07-31T12:03:48;20.40;99.90
51637;DHT22;37713;53.254;6.460;2023-07-31T12:06:15;20.30;99.90
51637;DHT22;37713;53.254;6.460;2023-07-31T12:08:41;20.30;99.90
51637;DHT22;37713;53.254;6.460;2023-07-31T12:11:09;20.10;99.90
51637;DHT22;37713;53.254;6.460;2023-07-31T12:13:40;19.90;99.90
51637;DHT22;37713;53.254;6.460;2023-07-31T12:16:06;19.80;99.90
51637;DHT22;37713;53.254;6.460;2023-07-31T12:18:37;19.70;99.90
51637;DHT22;37713;53.254;6.460;2023-07-31T12:21:05;19.80;99.90
51637;DHT22;37713;53.254;6.460;2023-07-31T12:23:33;19.90;99.90
51637;DHT22;37713;53.254;6.460;2023-07-31T12:26:09;19.90;99.90
51637;DHT22;37713;53.254;6.460;2023-07-31T12:28:49;19.90;99.90
51637;DHT22;37713;53.254;6.460;2023-07-31T12:31:20;19.90;99.90
51637;DHT22;37713;53.254;6.460;2023-07-31T12:33:48;20.00;99.90
51637;DHT22;37713;53.254;6.460;2023-07-31T12:36:23;20.00;99.90
51637;DHT22;37713;53.254;6.460;2023-07-31T12:38:50;20.20;99.90
51637;DHT22;37713;53.254;6.460;2023-07-31T12:41:16;20.20;99.90
51637;DHT22;37713;53.254;6.460;2023-07-31T12:43:43;20.20;99.90
51637;DHT22;37713;53.254;6.460;2023-07-31T12:46:09;20.10;99.90
51637;DHT22;37713;53.254;6.460;2023-07-31T12:48:35;20.10;99.90
51637;DHT22;37713;53.254;6.460;2023-07-31T12:51:02;20.10;99.90
51637;DHT22;37713;53.254;6.460;2023-07-31T12:53:28;20.20;99.90
51637;DHT22;37713;53.254;6.460;2023-07-31T12:55:55;20.20;99.90
51637;DHT22;37713;53.254;6.460;2023-07-31T12:58:21;20.20;99.90
51637;DHT22;37713;53.254;6.460;2023-07-31T13:00:47;20.20;99.90
51637;DHT22;37713;53.254;6.460;2023-07-31T13:03:13;20.10;99.90
51637;DHT22;37713;53.254;6.460;2023-07-31T13:05:39;20.00;99.90
51637;DHT22;37713;53.254;6.460;2023-07-31T13:08:04;20.00;99.90
51637;DHT22;37713;53.254;6.460;2023-07-31T13:10:30;19.90;99.90
51637;DHT22;37713;53.254;6.460;2023-07-31T13:12:56;19.90;99.90
51637;DHT22;37713;53.254;6.460;2023-07-31T13:15:22;19.80;99.90
51637;DHT22;37713;53.254;6.460;2023-07-31T13:17:48;19.90;99.90
51637;DHT22;37713;53.254;6.460;2023-07-31T13:20:14;19.90;99.90
51637;DHT22;37713;53.254;6.460;2023-07-31T13:22:40;19.90;99.90
51637;DHT22;37713;53.254;6.460;2023-07-31T13:25:06;19.90;99.90
51637;DHT22;37713;53.254;6.460;2023-07-31T13:27:32;20.00;99.90
51637;DHT22;37713;53.254;6.460;2023-07-31T13:29:58;20.00;99.90
51637;DHT22;37713;53.254;6.460;2023-07-31T13:32:24;20.10;99.90
51637;DHT22;37713;53.254;6.460;2023-07-31T13:34:50;20.10;99.90
51637;DHT22;37713;53.254;6.460;2023-07-31T13:37:16;20.20;99.90
51637;DHT22;37713;53.254;6.460;2023-07-31T13:39:42;20.30;99.90
51637;DHT22;37713;53.254;6.460;2023-07-31T13:42:09;20.30;99.90
51637;DHT22;37713;53.254;6.460;2023-07-31T13:44:37;20.40;99.90
51637;DHT22;37713;53.254;6.460;2023-07-31T13:47:03;20.50;99.90
51637;DHT22;37713;53.254;6.460;2023-07-31T13:49:29;20.60;99.90
51637;DHT22;37713;53.254;6.460;2023-07-31T13:51:56;20.70;99.90
51637;DHT22;37713;53.254;6.460;2023-07-31T13:54:25;20.80;99.90
51637;DHT22;37713;53.254;6.460;2023-07-31T13:56:52;20.80;99.90
51637;DHT22;37713;53.254;6.460;2023-07-31T13:59:18;20.90;99.90
51637;DHT22;37713;53.254;6.460;2023-07-31T14:01:44;20.90;99.90
51637;DHT22;37713;53.254;6.460;2023-07-31T14:04:10;20.90;99.90
51637;DHT22;37713;53.254;6.460;2023-07-31T14:06:36;21.00;99.90
51637;DHT22;37713;53.254;6.460;2023-07-31T14:09:02;21.00;99.90
51637;DHT22;37713;53.254;6.460;2023-07-31T14:11:30;20.90;99.90
51637;DHT22;37713;53.254;6.460;2023-07-31T14:13:56;20.80;99.90
51637;DHT22;37713;53.254;6.460;2023-07-31T14:16:22;20.70;99.90
51637;DHT22;37713;53.254;6.460;2023-07-31T14:18:48;20.70;99.90
51637;DHT22;37713;53.254;6.460;2023-07-31T14:21:14;20.70;99.90
51637;DHT22;37713;53.254;6.460;2023-07-31T14:23:40;20.70;99.90
51637;DHT22;37713;53.254;6.460;2023-07-31T14:26:06;20.70;99.90
51637;DHT22;37713;53.254;6.460;2023-07-31T14:28:32;20.70;99.90
51637;DHT22;37713;53.254;6.460;2023-07-31T14:30:58;20.60;99.90
51637;DHT22;37713;53.254;6.460;2023-07-31T14:33:24;20.60;99.90
51637;DHT22;37713;53.254;6.460;2023-07-31T14:35:50;20.50;99.90
51637;DHT22;37713;53.254;6.460;2023-07-31T14:38:15;20.50;99.90
51637;DHT22;37713;53.254;6.460;2023-07-31T14:40:41;20.40;99.90
51637;DHT22;37713;53.254;6.460;2023-07-31T14:43:07;20.40;99.90
51637;DHT22;37713;53.254;6.460;2023-07-31T14:45:33;20.30;99.90
51637;DHT22;37713;53.254;6.460;2023-07-31T14:47:59;20.30;99.90
51637;DHT22;37713;53.254;6.460;2023-07-31T14:50:25;20.30;99.90
51637;DHT22;37713;53.254;6.460;2023-07-31T14:52:51;20.30;99.90
51637;DHT22;37713;53.254;6.460;2023-07-31T14:55:18;20.30;99.90
51637;DHT22;37713;53.254;6.460;2023-07-31T14:57:44;20.30;99.90
51637;DHT22;37713;53.254;6.460;2023-07-31T15:00:10;20.20;99.90
51637;DHT22;37713;53.254;6.460;2023-07-31T15:02:39;20.20;99.90
51637;DHT22;37713;53.254;6.460;2023-07-31T15:05:05;20.20;99.90
51637;DHT22;37713;53.254;6.460;2023-07-31T15:07:32;20.20;99.90
51637;DHT22;37713;53.254;6.460;2023-07-31T15:09:58;20.10;99.90
51637;DHT22;37713;53.254;6.460;2023-07-31T15:12:24;20.10;99.90
51637;DHT22;37713;53.254;6.460;2023-07-31T15:14:50;20.00;99.90
51637;DHT22;37713;53.254;6.460;2023-07-31T15:17:17;19.90;99.90
51637;DHT22;37713;53.254;6.460;2023-07-31T15:19:43;19.90;99.90
51637;DHT22;37713;53.254;6.460;2023-07-31T15:22:09;19.90;99.90
51637;DHT22;37713;53.254;6.460;2023-07-31T15:24:35;19.80;99.90
51637;DHT22;37713;53.254;6.460;2023-07-31T15:27:01;19.80;99.90
51637;DHT22;37713;53.254;6.460;2023-07-31T15:29:29;19.80;99.90
51637;DHT22;37713;53.254;6.460;2023-07-31T15:31:55;19.80;99.90
51637;DHT22;37713;53.254;6.460;2023-07-31T15:34:21;19.80;99.90
51637;DHT22;37713;53.254;6.460;2023-07-31T15:36:47;19.80;99.90
51637;DHT22;37713;53.254;6.460;2023-07-31T15:39:13;19.80;99.90
51637;DHT22;37713;53.254;6.460;2023-07-31T15:41:40;19.80;99.90
51637;DHT22;37713;53.254;6.460;2023-07-31T15:44:06;19.70;99.90